createdAt,value
2023-01-10T00:00:59.549Z,10.20
2023-01-10T00:03:31.411Z,9.40
2023-01-10T00:06:02.898Z,10.00
2023-01-10T00:08:34.970Z,10.30
2023-01-10T00:11:27.092Z,10.30
2023-01-10T00:13:58.638Z,8.40
2023-01-10T00:16:30.147Z,9.70
2023-01-10T00:19:01.560Z,10.70
2023-01-10T00:21:32.986Z,9.20
2023-01-10T00:24:16.980Z,10.90
2023-01-10T00:26:51.384Z,10.50
2023-01-10T00:29:24.214Z,9.80
2023-01-10T00:31:56.690Z,10.60
2023-01-10T00:34:28.966Z,9.80
2023-01-10T00:37:01.028Z,10.00
2023-01-10T00:39:33.018Z,9.40
2023-01-10T00:42:22.460Z,8.30
2023-01-10T00:44:54.732Z,9.00
2023-01-10T00:47:26.838Z,9.00
2023-01-10T00:49:58.889Z,9.30
2023-01-10T00:52:30.254Z,11.10
2023-01-10T00:55:02.320Z,10.20
2023-01-10T00:57:34.202Z,11.10
2023-01-10T01:00:09.383Z,9.30
2023-01-10T01:02:41.341Z,10.30
2023-01-10T01:05:13.706Z,9.60
2023-01-10T01:07:45.522Z,12.10
2023-01-10T01:10:29.701Z,11.10
2023-01-10T01:13:01.981Z,9.30
2023-01-10T01:15:35.350Z,10.60
2023-01-10T01:18:07.447Z,8.50
2023-01-10T01:20:39.940Z,9.40
2023-01-10T01:23:11.614Z,10.70
2023-01-10T01:25:43.482Z,10.20
2023-01-10T01:28:15.202Z,9.40
2023-01-10T01:30:47.196Z,10.60
2023-01-10T01:33:19.438Z,9.30
2023-01-10T01:35:51.373Z,9.70
2023-01-10T01:38:23.037Z,10.40
2023-01-10T01:40:54.798Z,8.50
2023-01-10T01:43:27.486Z,9.80
2023-01-10T01:45:59.409Z,9.00
2023-01-10T01:48:38.994Z,10.80
2023-01-10T01:51:12.125Z,9.50
2023-01-10T01:53:46.485Z,9.80
2023-01-10T01:56:19.145Z,8.60
2023-01-10T01:58:51.801Z,9.40
2023-01-10T02:01:23.457Z,11.30
2023-01-10T02:03:57.457Z,10.30
2023-01-10T02:06:29.282Z,9.00
2023-01-10T02:09:04.772Z,9.70
2023-01-10T02:11:36.698Z,9.10
2023-01-10T02:14:09.031Z,9.80
2023-01-10T02:16:40.651Z,8.80
2023-01-10T02:19:19.046Z,9.10
2023-01-10T02:22:12.674Z,7.70
2023-01-10T02:25:13.611Z,8.00
2023-01-10T02:27:53.132Z,8.00
2023-01-10T02:30:48.988Z,8.50
2023-01-10T02:33:23.060Z,8.60
2023-01-10T02:36:18.408Z,9.00
2023-01-10T02:38:59.365Z,8.10
2023-01-10T02:41:32.830Z,8.60
2023-01-10T02:44:06.523Z,7.60
2023-01-10T02:46:38.820Z,8.20
2023-01-10T02:49:10.708Z,8.30
2023-01-10T02:51:42.467Z,8.10
2023-01-10T02:54:15.305Z,9.20
2023-01-10T02:57:19.565Z,7.50
2023-01-10T03:00:08.937Z,7.80
2023-01-10T03:02:58.506Z,7.00
2023-01-10T03:05:36.919Z,8.00
2023-01-10T03:08:12.333Z,8.20
2023-01-10T03:10:46.274Z,9.00
2023-01-10T03:13:20.719Z,8.30
2023-01-10T03:15:52.428Z,8.00
2023-01-10T03:18:25.542Z,8.70
2023-01-10T03:20:57.384Z,8.70
2023-01-10T03:23:28.923Z,10.90
2023-01-10T03:26:00.475Z,9.90
2023-01-10T03:28:33.622Z,8.20
2023-01-10T03:31:07.187Z,8.90
2023-01-10T03:33:38.636Z,9.20
2023-01-10T03:36:17.159Z,9.50
2023-01-10T03:38:50.423Z,10.20
2023-01-10T03:41:27.745Z,10.00
2023-01-10T03:44:20.074Z,9.50
2023-01-10T03:46:53.338Z,11.20
2023-01-10T03:49:25.405Z,10.90
2023-01-10T03:51:57.193Z,9.20
2023-01-10T03:54:29.005Z,9.40
2023-01-10T03:57:02.667Z,10.20
2023-01-10T03:59:34.418Z,9.60
2023-01-10T04:02:06.701Z,10.50
2023-01-10T04:04:38.505Z,10.30
2023-01-10T04:07:10.379Z,10.00
2023-01-10T04:09:42.069Z,10.40
2023-01-10T04:12:13.940Z,15.50
2023-01-10T04:14:47.211Z,12.00
2023-01-10T04:17:19.339Z,11.40
2023-01-10T04:19:51.037Z,9.80
2023-01-10T04:22:22.534Z,11.50
2023-01-10T04:24:54.775Z,13.40
2023-01-10T04:27:26.250Z,11.60
2023-01-10T04:29:57.659Z,10.40
2023-01-10T04:32:29.437Z,10.60
2023-01-10T04:35:01.222Z,11.90
2023-01-10T04:37:33.112Z,11.90
2023-01-10T04:40:04.627Z,10.70
2023-01-10T04:42:36.346Z,12.00
2023-01-10T04:45:12.032Z,10.60
2023-01-10T04:47:43.756Z,10.00
2023-01-10T04:50:15.647Z,11.20
2023-01-10T04:52:47.870Z,10.90
2023-01-10T04:55:20.050Z,12.60
2023-01-10T04:57:51.908Z,10.20
2023-01-10T05:00:24.076Z,10.30
2023-01-10T05:03:00.156Z,9.10
2023-01-10T05:05:32.167Z,10.50
2023-01-10T05:08:04.317Z,10.30
2023-01-10T05:10:35.909Z,12.60
2023-01-10T05:13:07.531Z,11.80
2023-01-10T05:15:39.158Z,10.70
2023-01-10T05:18:10.866Z,10.50
2023-01-10T05:20:42.382Z,9.60
2023-01-10T05:23:14.380Z,11.20
2023-01-10T05:25:46.139Z,9.80
2023-01-10T05:28:17.629Z,11.00
2023-01-10T05:30:49.032Z,11.30
2023-01-10T05:35:50.445Z,10.20
2023-01-10T05:38:22.098Z,9.00
2023-01-10T05:40:59.007Z,10.70
2023-01-10T05:43:30.738Z,11.00
2023-01-10T05:46:02.531Z,12.10
2023-01-10T05:48:34.408Z,10.40
2023-01-10T05:51:06.771Z,10.10
2023-01-10T05:53:38.294Z,11.90
2023-01-10T05:56:10.762Z,10.40
2023-01-10T05:58:42.489Z,11.20
2023-01-10T06:01:13.977Z,9.80
2023-01-10T06:03:45.462Z,10.50
2023-01-10T06:06:16.951Z,10.80
2023-01-10T06:08:48.573Z,11.20
2023-01-10T06:11:20.731Z,11.00
2023-01-10T06:13:56.175Z,10.90
2023-01-10T06:16:27.803Z,11.40
2023-01-10T06:18:59.405Z,10.50
2023-01-10T06:21:31.928Z,10.60
2023-01-10T06:24:03.590Z,10.00
2023-01-10T06:26:35.963Z,11.10
2023-01-10T06:29:07.638Z,11.20
2023-01-10T06:31:39.298Z,9.20
2023-01-10T06:34:10.857Z,11.70
2023-01-10T06:36:42.408Z,7.20
2023-01-10T06:39:14.216Z,11.00
2023-01-10T06:41:45.853Z,11.30
2023-01-10T06:44:17.484Z,9.40
2023-01-10T06:46:48.946Z,9.00
2023-01-10T06:49:21.031Z,9.30
2023-01-10T06:51:52.919Z,8.80
2023-01-10T06:54:25.257Z,9.40
2023-01-10T06:56:56.921Z,8.60
2023-01-10T06:59:28.690Z,9.80
2023-01-10T07:02:00.653Z,11.40
2023-01-10T07:04:32.249Z,9.40
2023-01-10T07:07:04.091Z,10.80
2023-01-10T07:09:35.582Z,10.20
2023-01-10T07:14:37.001Z,12.50
2023-01-10T07:17:08.722Z,11.40
2023-01-10T07:19:40.171Z,8.80
2023-01-10T07:22:12.313Z,8.90
2023-01-10T07:24:43.869Z,9.20
2023-01-10T07:27:15.429Z,11.30
2023-01-10T07:32:17.396Z,9.60
2023-01-10T07:34:49.064Z,9.20
2023-01-10T07:37:20.513Z,9.90
2023-01-10T07:39:52.598Z,10.30
2023-01-10T07:42:25.700Z,9.10
2023-01-10T07:44:57.479Z,9.70
2023-01-10T07:47:29.593Z,9.40
2023-01-10T07:50:01.236Z,9.10
2023-01-10T07:55:02.817Z,9.50
2023-01-10T07:57:34.713Z,9.10
2023-01-10T08:00:08.289Z,9.80
2023-01-10T08:02:40.000Z,9.70
2023-01-10T08:05:13.711Z,8.80
2023-01-10T08:07:48.613Z,8.80
2023-01-10T08:10:20.315Z,10.00
2023-01-10T08:12:52.726Z,9.90
2023-01-10T08:15:24.344Z,10.60
2023-01-10T08:17:57.116Z,10.30
2023-01-10T08:20:30.980Z,12.80
2023-01-10T08:23:02.802Z,10.90
2023-01-10T08:25:34.459Z,11.40
2023-01-10T08:28:06.409Z,14.20
2023-01-10T08:30:38.825Z,14.40
2023-01-10T08:33:10.496Z,16.40
2023-01-10T08:35:42.415Z,17.00
2023-01-10T08:38:13.900Z,18.60
2023-01-10T08:43:16.556Z,12.00
2023-01-10T08:45:48.148Z,12.10
2023-01-10T08:48:20.036Z,14.20
2023-01-10T08:50:51.443Z,10.90
2023-01-10T08:55:53.340Z,9.40
2023-01-10T08:58:25.547Z,8.80
2023-01-10T09:00:57.351Z,8.50
2023-01-10T09:03:28.930Z,8.80
2023-01-10T09:08:30.859Z,7.80
2023-01-10T09:11:02.933Z,9.60
2023-01-10T09:13:34.677Z,8.70
2023-01-10T09:16:07.067Z,8.00
2023-01-10T09:18:38.480Z,8.40
2023-01-10T09:23:40.294Z,9.20
2023-01-10T09:26:11.787Z,8.90
2023-01-10T09:28:43.337Z,8.00
2023-01-10T09:33:47.849Z,8.80
2023-01-10T09:36:19.310Z,9.30
2023-01-10T09:41:49.161Z,9.50
2023-01-10T09:44:22.786Z,9.40
2023-01-10T09:46:58.424Z,8.20
2023-01-10T09:49:36.914Z,8.80
2023-01-10T09:52:11.442Z,7.90
2023-01-10T09:54:43.636Z,8.40
2023-01-10T09:57:18.002Z,8.10
2023-01-10T09:59:51.938Z,8.20
2023-01-10T10:02:28.647Z,8.40
2023-01-10T10:05:11.421Z,7.60
2023-01-10T10:07:42.884Z,7.20
2023-01-10T10:12:51.013Z,8.20
2023-01-10T10:15:25.617Z,7.60
2023-01-10T10:18:04.566Z,8.90
2023-01-10T10:20:40.273Z,8.90
2023-01-10T10:23:28.186Z,7.20
2023-01-10T10:26:05.691Z,7.10
2023-01-10T10:29:12.945Z,6.80
2023-01-10T10:31:52.276Z,8.60
2023-01-10T10:34:27.070Z,6.60
2023-01-10T10:37:00.714Z,7.50
2023-01-10T10:39:36.325Z,8.60
2023-01-10T10:42:12.123Z,7.90
2023-01-10T10:44:45.153Z,6.60
2023-01-10T10:47:19.397Z,7.30
2023-01-10T10:49:54.247Z,7.20
2023-01-10T10:52:27.447Z,7.10
2023-01-10T10:54:59.132Z,9.50
2023-01-10T10:57:31.051Z,8.30
2023-01-10T11:00:03.586Z,9.50
2023-01-10T11:02:41.412Z,7.00
2023-01-10T11:05:19.517Z,7.80
2023-01-10T11:07:51.863Z,8.40
2023-01-10T11:10:37.274Z,7.50
2023-01-10T11:13:23.452Z,7.20
2023-01-10T11:15:56.273Z,7.60
2023-01-10T11:18:28.994Z,7.70
2023-01-10T11:21:02.355Z,7.80
2023-01-10T11:23:50.931Z,6.60
2023-01-10T11:26:29.814Z,8.30
2023-01-10T11:29:09.787Z,9.00
2023-01-10T11:31:41.548Z,7.60
2023-01-10T11:34:23.258Z,8.30
2023-01-10T11:37:03.059Z,7.30
2023-01-10T11:39:34.824Z,7.20
2023-01-10T11:42:26.228Z,6.30
2023-01-10T11:44:57.936Z,5.60
2023-01-10T11:47:29.963Z,7.10
2023-01-10T11:50:02.670Z,8.10
2023-01-10T11:52:34.466Z,8.30
2023-01-10T11:55:08.651Z,7.70
2023-01-10T11:57:40.412Z,9.50
2023-01-10T12:00:14.115Z,8.80
2023-01-10T12:02:46.031Z,11.00
2023-01-10T12:05:22.520Z,10.20
2023-01-10T12:08:01.801Z,9.70
2023-01-10T12:10:33.259Z,6.80
2023-01-10T12:13:16.936Z,7.40
2023-01-10T12:15:49.658Z,6.90
2023-01-10T12:18:21.743Z,6.90
2023-01-10T12:20:55.392Z,5.60
2023-01-10T12:23:27.432Z,5.00
2023-01-10T12:26:11.118Z,5.40
2023-01-10T12:28:45.768Z,5.20
2023-01-10T12:31:18.899Z,5.50
2023-01-10T12:33:52.487Z,5.40
2023-01-10T12:36:30.250Z,6.30
2023-01-10T12:39:08.521Z,5.70
2023-01-10T12:42:08.547Z,6.20
2023-01-10T12:44:41.807Z,5.70
2023-01-10T12:47:21.303Z,5.50
2023-01-10T12:49:54.911Z,5.30
2023-01-10T12:52:32.879Z,5.50
2023-01-10T12:55:04.721Z,5.40
2023-01-10T12:57:39.558Z,6.40
2023-01-10T13:00:20.482Z,7.00
2023-01-10T13:02:54.129Z,6.60
2023-01-10T13:05:26.848Z,6.60
2023-01-10T13:08:01.519Z,7.30
2023-01-10T13:10:34.756Z,5.40
2023-01-10T13:13:07.891Z,7.60
2023-01-10T13:15:41.011Z,4.70
2023-01-10T13:18:20.146Z,6.00
2023-01-10T13:20:51.924Z,6.70
2023-01-10T13:23:30.486Z,6.80
2023-01-10T13:26:05.287Z,6.60
2023-01-10T13:28:39.456Z,5.50
2023-01-10T13:31:23.659Z,5.50
2023-01-10T13:33:56.810Z,6.50
2023-01-10T13:36:29.277Z,6.60
2023-01-10T13:39:03.358Z,6.90
2023-01-10T13:42:21.596Z,7.20
2023-01-10T13:45:27.622Z,6.60
2023-01-10T13:48:06.451Z,5.20
2023-01-10T13:50:54.943Z,7.90
2023-01-10T13:53:52.882Z,6.80
2023-01-10T13:56:47.219Z,6.60
2023-01-10T14:00:24.611Z,7.50
2023-01-10T14:02:56.545Z,6.50
2023-01-10T14:05:28.695Z,5.70
2023-01-10T14:08:00.660Z,5.90
2023-01-10T14:10:33.011Z,7.70
2023-01-10T14:13:09.637Z,9.10
2023-01-10T14:15:42.990Z,8.70
2023-01-10T14:18:22.100Z,7.70
2023-01-10T14:21:00.557Z,6.60
2023-01-10T14:23:32.904Z,7.50
2023-01-10T14:26:04.418Z,6.60
2023-01-10T14:31:09.423Z,6.20
2023-01-10T14:33:41.433Z,7.10
2023-01-10T14:36:17.912Z,8.10
2023-01-10T14:38:49.420Z,6.90
2023-01-10T14:41:23.221Z,7.50
2023-01-10T14:43:56.716Z,8.60
2023-01-10T14:46:30.153Z,7.70
2023-01-10T14:49:01.735Z,6.80
2023-01-10T14:51:34.527Z,6.50
2023-01-10T14:54:12.509Z,7.00
2023-01-10T14:56:45.347Z,7.50
2023-01-10T14:59:26.022Z,7.20
2023-01-10T15:01:59.405Z,7.80
2023-01-10T15:04:33.110Z,6.80
2023-01-10T15:07:11.327Z,7.30
2023-01-10T15:09:47.269Z,7.40
2023-01-10T15:12:18.919Z,5.30
2023-01-10T15:14:50.675Z,6.00
2023-01-10T15:17:22.352Z,5.50
2023-01-10T15:19:55.223Z,6.60
2023-01-10T15:22:31.134Z,6.60
2023-01-10T15:25:03.951Z,6.70
2023-01-10T15:27:46.552Z,7.50
2023-01-10T15:30:21.178Z,8.00
2023-01-10T15:32:53.375Z,6.70
2023-01-10T15:35:35.291Z,6.70
2023-01-10T15:38:08.842Z,6.80
2023-01-10T15:40:41.439Z,9.30
2023-01-10T15:43:30.580Z,7.90
2023-01-10T15:46:02.755Z,6.70
2023-01-10T15:48:35.765Z,7.40
2023-01-10T15:51:14.634Z,5.50
2023-01-10T15:53:57.983Z,6.50
2023-01-10T15:56:31.476Z,6.60
2023-01-10T15:59:03.376Z,6.80
2023-01-10T16:01:35.025Z,6.80
2023-01-10T16:04:07.540Z,8.10
2023-01-10T16:06:39.551Z,7.80
2023-01-10T16:09:17.758Z,7.20
2023-01-10T16:12:08.890Z,8.00
2023-01-10T16:14:40.446Z,7.90
2023-01-10T16:17:12.870Z,8.10
2023-01-10T16:19:44.669Z,8.90
2023-01-10T16:22:17.329Z,7.20
2023-01-10T16:24:52.681Z,7.90
2023-01-10T16:27:24.199Z,8.20
2023-01-10T16:29:56.849Z,15.20
2023-01-10T16:32:29.201Z,8.90
2023-01-10T16:35:02.810Z,10.30
2023-01-10T16:37:34.438Z,10.80
2023-01-10T16:40:15.230Z,7.90
2023-01-10T16:43:04.587Z,7.20
2023-01-10T16:45:36.443Z,7.90
2023-01-10T16:48:08.295Z,7.70
2023-01-10T16:50:40.128Z,7.50
2023-01-10T16:53:13.865Z,7.60
2023-01-10T16:55:46.642Z,6.80
2023-01-10T16:58:18.544Z,8.00
2023-01-10T17:00:53.036Z,9.20
2023-01-10T17:03:25.568Z,7.20
2023-01-10T17:05:57.213Z,8.10
2023-01-10T17:08:28.705Z,8.40
2023-01-10T17:11:06.432Z,10.20
2023-01-10T17:13:40.625Z,9.40
2023-01-10T17:16:12.198Z,9.30
2023-01-10T17:18:43.821Z,9.90
2023-01-10T17:21:17.629Z,10.10
2023-01-10T17:23:49.054Z,10.40
2023-01-10T17:26:21.230Z,9.20
2023-01-10T17:28:52.832Z,10.20
2023-01-10T17:31:24.381Z,8.10
2023-01-10T17:33:56.483Z,9.60
2023-01-10T17:36:30.283Z,8.30
2023-01-10T17:39:01.757Z,9.10
2023-01-10T17:41:33.636Z,8.70
2023-01-10T17:44:05.240Z,9.40
2023-01-10T17:46:37.458Z,7.90
2023-01-10T17:49:09.277Z,10.50
2023-01-10T17:51:41.346Z,7.30
2023-01-10T17:54:14.669Z,8.30
2023-01-10T17:56:46.327Z,6.90
2023-01-10T17:59:17.741Z,7.30
2023-01-10T18:01:49.576Z,8.80
2023-01-10T18:04:21.170Z,7.90
2023-01-10T18:06:53.115Z,8.70
2023-01-10T18:09:24.908Z,9.10
2023-01-10T18:11:56.394Z,9.50
2023-01-10T18:14:40.094Z,8.00
2023-01-10T18:17:12.653Z,7.60
2023-01-10T18:19:44.072Z,7.70
2023-01-10T18:22:33.709Z,7.60
2023-01-10T18:25:06.179Z,7.40
2023-01-10T18:27:37.776Z,7.60
2023-01-10T18:30:11.727Z,7.70
2023-01-10T18:32:43.393Z,8.50
2023-01-10T18:35:15.419Z,7.20
2023-01-10T18:37:47.589Z,8.30
2023-01-10T18:40:20.655Z,8.50
2023-01-10T18:42:54.835Z,9.60
2023-01-10T18:45:28.412Z,8.40
2023-01-10T18:48:02.023Z,9.20
2023-01-10T18:50:33.542Z,7.60
2023-01-10T18:53:05.224Z,7.30
2023-01-10T18:55:36.921Z,8.20
2023-01-10T18:58:09.624Z,10.30
2023-01-10T19:00:41.215Z,8.30
2023-01-10T19:03:12.756Z,7.80
2023-01-10T19:05:45.178Z,8.10
2023-01-10T19:08:16.832Z,8.40
2023-01-10T19:11:11.912Z,9.80
2023-01-10T19:13:40.079Z,9.10
2023-01-10T19:16:16.070Z,9.30
2023-01-10T19:18:49.478Z,9.40
2023-01-10T19:21:21.234Z,8.50
2023-01-10T19:23:55.255Z,9.40
2023-01-10T19:26:27.151Z,9.10
2023-01-10T19:28:58.703Z,9.60
2023-01-10T19:31:30.915Z,10.90
2023-01-10T19:34:02.775Z,9.40
2023-01-10T19:36:34.968Z,9.10
2023-01-10T19:39:07.365Z,8.30
2023-01-10T19:41:39.395Z,9.60
2023-01-10T19:44:13.236Z,10.60
2023-01-10T19:46:47.774Z,10.10
2023-01-10T19:49:20.211Z,10.50
2023-01-10T19:51:53.907Z,9.60
2023-01-10T19:54:25.927Z,8.80
2023-01-10T19:56:57.520Z,9.60
2023-01-10T19:59:31.700Z,10.40
2023-01-10T20:02:03.272Z,8.40
2023-01-10T20:04:34.736Z,9.40
2023-01-10T20:07:06.361Z,9.70
2023-01-10T20:09:38.174Z,7.90
2023-01-10T20:12:09.788Z,8.90
2023-01-10T20:14:41.437Z,9.00
2023-01-10T20:17:13.826Z,8.30
2023-01-10T20:19:48.109Z,8.10
2023-01-10T20:22:19.869Z,9.40
2023-01-10T20:24:52.343Z,10.50
2023-01-10T20:27:23.886Z,8.30
2023-01-10T20:29:55.467Z,9.40
2023-01-10T20:32:26.812Z,10.60
2023-01-10T20:34:58.363Z,9.50
2023-01-10T20:37:29.825Z,10.70
2023-01-10T20:40:01.764Z,9.60
2023-01-10T20:42:33.868Z,8.80
2023-01-10T20:45:05.363Z,9.70
2023-01-10T20:47:37.123Z,9.90
2023-01-10T20:50:10.858Z,9.70
2023-01-10T20:52:42.286Z,9.80
2023-01-10T20:55:16.078Z,10.30
2023-01-10T20:57:47.736Z,9.30
2023-01-10T21:00:21.500Z,9.30
2023-01-10T21:02:53.044Z,9.10
2023-01-10T21:05:24.824Z,8.30
2023-01-10T21:07:56.436Z,10.10
2023-01-10T21:10:28.267Z,9.10
2023-01-10T21:12:59.970Z,10.00
2023-01-10T21:15:31.533Z,9.60
2023-01-10T21:18:02.980Z,9.70
2023-01-10T21:20:34.674Z,9.60
2023-01-10T21:23:06.510Z,9.80
2023-01-10T21:25:38.539Z,10.00
2023-01-10T21:28:10.361Z,8.60
2023-01-10T21:30:42.066Z,8.70
2023-01-10T21:33:13.720Z,8.20
2023-01-10T21:35:45.630Z,8.70
2023-01-10T21:38:17.223Z,9.10
2023-01-10T21:40:49.069Z,8.90
2023-01-10T21:43:20.656Z,9.70
2023-01-10T21:45:52.279Z,8.80
2023-01-10T21:48:24.533Z,8.80
2023-01-10T21:50:58.100Z,9.00
2023-01-10T21:53:29.737Z,8.50
2023-01-10T21:56:02.240Z,9.00
2023-01-10T21:58:33.899Z,8.30
2023-01-10T22:01:06.275Z,8.80
2023-01-10T22:03:38.186Z,8.80
2023-01-10T22:06:10.494Z,8.70
2023-01-10T22:08:42.010Z,8.10
2023-01-10T22:11:13.741Z,8.20
2023-01-10T22:13:45.481Z,8.90
2023-01-10T22:16:17.034Z,8.20
2023-01-10T22:18:49.242Z,9.20
2023-01-10T22:21:21.881Z,9.30
2023-01-10T22:23:53.831Z,9.20
2023-01-10T22:26:25.482Z,10.20
2023-01-10T22:28:57.406Z,8.70
2023-01-10T22:31:29.331Z,9.20
2023-01-10T22:34:00.980Z,10.10
2023-01-10T22:36:32.648Z,11.40
2023-01-10T22:39:04.629Z,9.10
2023-01-10T22:41:36.075Z,10.20
2023-01-10T22:44:08.060Z,11.00
2023-01-10T22:46:39.612Z,10.60
2023-01-10T22:49:11.363Z,11.20
2023-01-10T22:51:43.156Z,11.40
2023-01-10T22:54:16.023Z,12.00
2023-01-10T22:56:47.687Z,10.40
2023-01-10T23:04:57.730Z,10.00
2023-01-10T23:07:29.555Z,11.20
2023-01-10T23:10:01.215Z,9.30
2023-01-10T23:12:32.971Z,9.20
2023-01-10T23:15:04.919Z,9.00
2023-01-10T23:17:36.498Z,8.20
2023-01-10T23:20:10.194Z,9.90
2023-01-10T23:22:41.580Z,11.70
2023-01-10T23:25:13.116Z,9.20
2023-01-10T23:27:44.632Z,10.10
2023-01-10T23:30:17.295Z,10.40
2023-01-10T23:32:49.786Z,9.40
2023-01-10T23:35:21.424Z,9.70
2023-01-10T23:37:54.359Z,9.30
2023-01-10T23:40:26.056Z,9.70
2023-01-10T23:42:57.596Z,9.90
2023-01-10T23:45:28.968Z,10.90
2023-01-10T23:48:00.636Z,9.20
2023-01-10T23:50:32.218Z,9.30
2023-01-10T23:53:03.939Z,10.50
2023-01-10T23:55:35.607Z,9.40
2023-01-10T23:58:07.232Z,10.50
